sensor_id;sensor_type;location;lat;lon;timestamp;P1;durP1;ratioP1;P2;durP2;ratioP2
24301;SDS011;12421;49.732;20.078;2023-04-15T00:05:53;2.90;;;1.30;;
24301;SDS011;12421;49.732;20.078;2023-04-15T00:15:56;2.40;;;1.10;;
24301;SDS011;12421;49.732;20.078;2023-04-15T00:25:59;1.30;;;0.80;;
24301;SDS011;12421;49.732;20.078;2023-04-15T00:36:03;4.90;;;1.60;;
24301;SDS011;12421;49.732;20.078;2023-04-15T00:46:08;3.80;;;2.00;;
24301;SDS011;12421;49.732;20.078;2023-04-15T00:56:13;1.80;;;0.90;;
24301;SDS011;12421;49.732;20.078;2023-04-15T01:06:17;2.10;;;1.10;;
24301;SDS011;12421;49.732;20.078;2023-04-15T01:16:20;1.90;;;1.00;;
24301;SDS011;12421;49.732;20.078;2023-04-15T01:26:23;5.30;;;1.30;;
24301;SDS011;12421;49.732;20.078;2023-04-15T01:36:27;4.10;;;1.20;;
24301;SDS011;12421;49.732;20.078;2023-04-15T01:46:31;2.70;;;1.10;;
24301;SDS011;12421;49.732;20.078;2023-04-15T01:56:35;2.60;;;1.40;;
24301;SDS011;12421;49.732;20.078;2023-04-15T02:06:38;2.50;;;1.40;;
24301;SDS011;12421;49.732;20.078;2023-04-15T02:16:42;3.90;;;1.50;;
24301;SDS011;12421;49.732;20.078;2023-04-15T02:26:45;5.30;;;2.20;;
24301;SDS011;12421;49.732;20.078;2023-04-15T02:36:49;7.40;;;2.10;;
24301;SDS011;12421;49.732;20.078;2023-04-15T02:46:57;4.50;;;2.20;;
24301;SDS011;12421;49.732;20.078;2023-04-15T02:57:01;7.10;;;2.40;;
24301;SDS011;12421;49.732;20.078;2023-04-15T03:07:04;6.90;;;2.70;;
24301;SDS011;12421;49.732;20.078;2023-04-15T03:17:08;6.90;;;3.90;;
24301;SDS011;12421;49.732;20.078;2023-04-15T03:27:13;7.80;;;4.00;;
24301;SDS011;12421;49.732;20.078;2023-04-15T03:37:17;6.90;;;4.60;;
24301;SDS011;12421;49.732;20.078;2023-04-15T03:47:20;11.70;;;4.40;;
24301;SDS011;12421;49.732;20.078;2023-04-15T03:57:23;5.70;;;2.60;;
24301;SDS011;12421;49.732;20.078;2023-04-15T04:07:26;7.40;;;2.40;;
24301;SDS011;12421;49.732;20.078;2023-04-15T04:17:29;5.80;;;2.10;;
24301;SDS011;12421;49.732;20.078;2023-04-15T04:27:33;6.20;;;2.30;;
24301;SDS011;12421;49.732;20.078;2023-04-15T04:37:36;5.80;;;2.10;;
24301;SDS011;12421;49.732;20.078;2023-04-15T04:47:40;6.10;;;2.90;;
24301;SDS011;12421;49.732;20.078;2023-04-15T04:57:43;3.50;;;2.60;;
24301;SDS011;12421;49.732;20.078;2023-04-15T05:07:46;6.80;;;3.80;;
24301;SDS011;12421;49.732;20.078;2023-04-15T05:17:51;6.60;;;3.30;;
24301;SDS011;12421;49.732;20.078;2023-04-15T05:27:54;7.10;;;4.70;;
24301;SDS011;12421;49.732;20.078;2023-04-15T05:37:57;6.30;;;4.20;;
24301;SDS011;12421;49.732;20.078;2023-04-15T05:48:00;4.60;;;2.80;;
24301;SDS011;12421;49.732;20.078;2023-04-15T05:58:03;7.40;;;2.70;;
24301;SDS011;12421;49.732;20.078;2023-04-15T06:08:06;6.40;;;3.60;;
24301;SDS011;12421;49.732;20.078;2023-04-15T06:18:10;5.50;;;3.60;;
24301;SDS011;12421;49.732;20.078;2023-04-15T06:28:13;4.90;;;2.30;;
24301;SDS011;12421;49.732;20.078;2023-04-15T06:38:16;5.60;;;3.20;;
24301;SDS011;12421;49.732;20.078;2023-04-15T06:48:40;5.90;;;3.40;;
24301;SDS011;12421;49.732;20.078;2023-04-15T06:58:53;3.40;;;2.00;;
24301;SDS011;12421;49.732;20.078;2023-04-15T07:08:56;3.60;;;1.70;;
24301;SDS011;12421;49.732;20.078;2023-04-15T07:19:00;3.00;;;0.80;;
24301;SDS011;12421;49.732;20.078;2023-04-15T07:29:06;1.50;;;0.60;;
24301;SDS011;12421;49.732;20.078;2023-04-15T07:50:23;1.40;;;0.70;;
24301;SDS011;12421;49.732;20.078;2023-04-15T08:00:26;1.40;;;0.50;;
24301;SDS011;12421;49.732;20.078;2023-04-15T08:10:48;1.70;;;0.50;;
24301;SDS011;12421;49.732;20.078;2023-04-15T08:21:14;1.40;;;0.60;;
24301;SDS011;12421;49.732;20.078;2023-04-15T08:31:41;1.30;;;0.50;;
24301;SDS011;12421;49.732;20.078;2023-04-15T08:41:45;2.30;;;0.70;;
24301;SDS011;12421;49.732;20.078;2023-04-15T08:51:50;1.30;;;0.40;;
24301;SDS011;12421;49.732;20.078;2023-04-15T09:01:53;1.70;;;0.70;;
24301;SDS011;12421;49.732;20.078;2023-04-15T09:12:00;2.10;;;0.60;;
24301;SDS011;12421;49.732;20.078;2023-04-15T09:22:03;1.50;;;0.60;;
24301;SDS011;12421;49.732;20.078;2023-04-15T09:32:24;1.60;;;0.80;;
24301;SDS011;12421;49.732;20.078;2023-04-15T09:42:29;2.10;;;0.90;;
24301;SDS011;12421;49.732;20.078;2023-04-15T09:52:39;2.10;;;0.90;;
24301;SDS011;12421;49.732;20.078;2023-04-15T10:02:50;2.20;;;1.00;;
24301;SDS011;12421;49.732;20.078;2023-04-15T10:12:54;1.60;;;0.80;;
24301;SDS011;12421;49.732;20.078;2023-04-15T10:22:58;3.20;;;0.90;;
24301;SDS011;12421;49.732;20.078;2023-04-15T10:33:01;4.60;;;2.80;;
24301;SDS011;12421;49.732;20.078;2023-04-15T10:43:06;3.70;;;1.40;;
24301;SDS011;12421;49.732;20.078;2023-04-15T10:53:09;4.20;;;1.70;;
24301;SDS011;12421;49.732;20.078;2023-04-15T11:03:12;2.10;;;0.90;;
24301;SDS011;12421;49.732;20.078;2023-04-15T11:13:17;2.50;;;1.10;;
24301;SDS011;12421;49.732;20.078;2023-04-15T11:33:57;2.00;;;0.90;;
24301;SDS011;12421;49.732;20.078;2023-04-15T11:44:01;2.80;;;1.40;;
24301;SDS011;12421;49.732;20.078;2023-04-15T11:54:05;4.50;;;2.50;;
24301;SDS011;12421;49.732;20.078;2023-04-15T12:04:12;4.20;;;2.50;;
24301;SDS011;12421;49.732;20.078;2023-04-15T12:14:19;2.90;;;1.80;;
24301;SDS011;12421;49.732;20.078;2023-04-15T12:24:32;3.70;;;1.80;;
24301;SDS011;12421;49.732;20.078;2023-04-15T12:34:38;3.80;;;2.00;;
24301;SDS011;12421;49.732;20.078;2023-04-15T12:44:43;5.50;;;3.60;;
24301;SDS011;12421;49.732;20.078;2023-04-15T12:54:46;2.90;;;1.80;;
24301;SDS011;12421;49.732;20.078;2023-04-15T13:04:49;3.10;;;2.10;;
24301;SDS011;12421;49.732;20.078;2023-04-15T13:14:53;2.70;;;1.80;;
24301;SDS011;12421;49.732;20.078;2023-04-15T13:24:56;5.50;;;3.20;;
24301;SDS011;12421;49.732;20.078;2023-04-15T13:34:59;5.00;;;3.00;;
24301;SDS011;12421;49.732;20.078;2023-04-15T13:45:03;7.10;;;4.60;;
24301;SDS011;12421;49.732;20.078;2023-04-15T13:55:06;6.50;;;3.70;;
24301;SDS011;12421;49.732;20.078;2023-04-15T14:05:22;6.10;;;4.00;;
24301;SDS011;12421;49.732;20.078;2023-04-15T14:15:26;3.90;;;2.60;;
24301;SDS011;12421;49.732;20.078;2023-04-15T14:25:29;2.60;;;1.40;;
24301;SDS011;12421;49.732;20.078;2023-04-15T14:35:35;3.00;;;1.80;;
24301;SDS011;12421;49.732;20.078;2023-04-15T14:45:39;2.60;;;1.50;;
24301;SDS011;12421;49.732;20.078;2023-04-15T14:55:47;3.00;;;1.50;;
24301;SDS011;12421;49.732;20.078;2023-04-15T15:05:50;2.20;;;0.90;;
24301;SDS011;12421;49.732;20.078;2023-04-15T15:15:54;5.50;;;3.70;;
24301;SDS011;12421;49.732;20.078;2023-04-15T15:25:57;5.80;;;4.10;;
24301;SDS011;12421;49.732;20.078;2023-04-15T15:36:00;9.10;;;6.00;;
24301;SDS011;12421;49.732;20.078;2023-04-15T15:46:05;5.50;;;4.00;;
24301;SDS011;12421;49.732;20.078;2023-04-15T15:56:08;5.50;;;3.30;;
24301;SDS011;12421;49.732;20.078;2023-04-15T16:06:12;5.30;;;3.20;;
24301;SDS011;12421;49.732;20.078;2023-04-15T16:16:15;6.00;;;3.90;;
24301;SDS011;12421;49.732;20.078;2023-04-15T16:26:18;5.30;;;3.80;;
24301;SDS011;12421;49.732;20.078;2023-04-15T16:36:21;4.60;;;3.60;;
24301;SDS011;12421;49.732;20.078;2023-04-15T16:46:49;7.90;;;4.40;;
24301;SDS011;12421;49.732;20.078;2023-04-15T17:07:00;14.60;;;8.40;;
24301;SDS011;12421;49.732;20.078;2023-04-15T17:17:31;13.20;;;9.80;;
24301;SDS011;12421;49.732;20.078;2023-04-15T17:27:35;14.90;;;9.30;;
24301;SDS011;12421;49.732;20.078;2023-04-15T17:37:40;14.10;;;9.00;;
24301;SDS011;12421;49.732;20.078;2023-04-15T17:47:44;16.30;;;11.00;;
24301;SDS011;12421;49.732;20.078;2023-04-15T17:57:48;22.70;;;13.20;;
24301;SDS011;12421;49.732;20.078;2023-04-15T18:07:52;33.30;;;22.70;;
24301;SDS011;12421;49.732;20.078;2023-04-15T18:17:59;34.40;;;23.50;;
24301;SDS011;12421;49.732;20.078;2023-04-15T18:28:03;41.70;;;28.60;;
24301;SDS011;12421;49.732;20.078;2023-04-15T18:38:22;30.50;;;21.40;;
24301;SDS011;12421;49.732;20.078;2023-04-15T18:49:02;34.00;;;24.20;;
24301;SDS011;12421;49.732;20.078;2023-04-15T18:59:10;50.30;;;36.00;;
24301;SDS011;12421;49.732;20.078;2023-04-15T19:09:32;48.50;;;32.30;;
24301;SDS011;12421;49.732;20.078;2023-04-15T19:19:35;40.30;;;25.90;;
24301;SDS011;12421;49.732;20.078;2023-04-15T19:29:41;57.60;;;30.80;;
24301;SDS011;12421;49.732;20.078;2023-04-15T19:39:54;50.40;;;30.20;;
24301;SDS011;12421;49.732;20.078;2023-04-15T19:50:52;57.20;;;36.90;;
24301;SDS011;12421;49.732;20.078;2023-04-15T20:00:57;50.10;;;31.50;;
24301;SDS011;12421;49.732;20.078;2023-04-15T20:11:01;40.20;;;27.50;;
24301;SDS011;12421;49.732;20.078;2023-04-15T20:21:13;47.70;;;29.30;;
24301;SDS011;12421;49.732;20.078;2023-04-15T20:31:39;53.40;;;34.00;;
24301;SDS011;12421;49.732;20.078;2023-04-15T20:41:46;78.90;;;44.80;;
24301;SDS011;12421;49.732;20.078;2023-04-15T20:51:51;71.10;;;40.20;;
24301;SDS011;12421;49.732;20.078;2023-04-15T21:02:05;49.60;;;31.20;;
24301;SDS011;12421;49.732;20.078;2023-04-15T21:12:09;47.50;;;29.20;;
24301;SDS011;12421;49.732;20.078;2023-04-15T21:22:12;57.70;;;33.20;;
24301;SDS011;12421;49.732;20.078;2023-04-15T21:32:16;45.20;;;29.20;;
24301;SDS011;12421;49.732;20.078;2023-04-15T21:42:19;45.90;;;27.70;;
24301;SDS011;12421;49.732;20.078;2023-04-15T21:52:22;41.20;;;23.90;;
24301;SDS011;12421;49.732;20.078;2023-04-15T22:02:26;46.50;;;26.20;;
24301;SDS011;12421;49.732;20.078;2023-04-15T22:12:29;42.50;;;26.60;;
24301;SDS011;12421;49.732;20.078;2023-04-15T22:22:33;41.50;;;24.50;;
24301;SDS011;12421;49.732;20.078;2023-04-15T22:32:46;41.90;;;24.20;;
24301;SDS011;12421;49.732;20.078;2023-04-15T22:42:49;38.30;;;23.60;;
24301;SDS011;12421;49.732;20.078;2023-04-15T22:52:52;37.10;;;22.70;;
24301;SDS011;12421;49.732;20.078;2023-04-15T23:02:55;30.80;;;20.40;;
24301;SDS011;12421;49.732;20.078;2023-04-15T23:12:58;33.30;;;21.20;;
24301;SDS011;12421;49.732;20.078;2023-04-15T23:23:02;34.30;;;21.10;;
24301;SDS011;12421;49.732;20.078;2023-04-15T23:33:05;37.10;;;21.40;;
24301;SDS011;12421;49.732;20.078;2023-04-15T23:43:08;31.70;;;20.60;;
24301;SDS011;12421;49.732;20.078;2023-04-15T23:53:11;35.70;;;21.20;;
